Time;durP1;ratioP1;P1;durP2;ratioP2;P2;SDS_P1;SDS_P2;PMS_P1;PMS_P2;Temp;Humidity;BMP_temperature;BMP_pressure;BME280_temperature;BME280_humidity;BME280_pressure;Samples;Min_cycle;Max_cycle;Signal;HPM_P1;HPM_P2
2023/12/19 00:01:51;;;;;;;17.42;7.70;;;7.90;99.90;;;;;;5052667;28;20059;-72
2023/12/19 00:04:17;;;;;;;14.50;7.68;;;8.00;99.90;;;;;;5047631;28;20040;-73
2023/12/19 00:06:43;;;;;;;16.70;7.82;;;8.00;99.90;;;;;;5049132;28;20052;-71
2023/12/19 00:09:09;;;;;;;19.33;8.40;;;8.00;99.90;;;;;;5051533;28;20036;-73
2023/12/19 00:11:34;;;;;;;17.00;7.95;;;8.00;99.90;;;;;;5055167;28;20124;-75
2023/12/19 00:14:00;;;;;;;12.38;6.97;;;8.00;99.90;;;;;;5051418;28;20074;-74
2023/12/19 00:16:26;;;;;;;17.73;7.03;;;8.00;99.90;;;;;;5060788;28;20032;-73
2023/12/19 00:18:52;;;;;;;19.02;7.13;;;8.10;99.90;;;;;;5030064;28;20120;-74
2023/12/19 00:21:18;;;;;;;13.30;6.15;;;8.10;99.90;;;;;;5052591;28;20373;-74
2023/12/19 00:23:44;;;;;;;16.00;7.32;;;8.10;99.90;;;;;;5051781;28;20049;-74
2023/12/19 00:26:12;;;;;;;14.90;6.57;;;8.00;99.90;;;;;;5052068;28;20047;-74
2023/12/19 00:28:37;;;;;;;14.43;6.72;;;8.00;99.90;;;;;;5036270;28;20358;-72
2023/12/19 00:31:03;;;;;;;14.63;7.40;;;8.10;99.90;;;;;;5052542;28;20098;-72
2023/12/19 00:33:29;;;;;;;21.88;8.48;;;8.10;99.90;;;;;;5052011;28;20123;-74
2023/12/19 00:35:55;;;;;;;17.67;6.82;;;8.00;99.90;;;;;;5052689;28;20040;-74
2023/12/19 00:38:21;;;;;;;17.20;7.28;;;8.00;99.90;;;;;;5047009;28;20397;-73
2023/12/19 00:40:46;;;;;;;16.88;7.65;;;8.00;99.90;;;;;;5038586;28;20053;-73
2023/12/19 00:43:21;;;;;;;20.30;7.50;;;8.00;99.90;;;;;;5025318;28;20048;-75
2023/12/19 00:45:47;;;;;;;20.35;7.78;;;8.00;99.90;;;;;;5026453;28;20100;-75
2023/12/19 00:48:13;;;;;;;18.58;7.70;;;8.10;99.90;;;;;;5027975;28;20037;-74
2023/12/19 00:50:39;;;;;;;15.80;6.03;;;8.10;99.90;;;;;;4994330;28;20616;-72
2023/12/19 00:53:05;;;;;;;14.13;5.88;;;8.10;99.90;;;;;;5027773;28;20116;-72
2023/12/19 00:55:31;;;;;;;16.17;6.20;;;8.10;99.90;;;;;;5012040;28;20508;-73
2023/12/19 00:58:09;;;;;;;15.70;6.97;;;8.00;99.90;;;;;;5028663;28;20044;-74
2023/12/19 01:00:37;;;;;;;11.10;6.15;;;8.10;99.90;;;;;;5026203;28;20052;-73
2023/12/19 01:03:03;;;;;;;14.27;7.40;;;8.10;99.90;;;;;;5015322;28;20041;-74
2023/12/19 01:05:29;;;;;;;10.35;5.75;;;8.10;99.90;;;;;;5030794;28;20037;-73
2023/12/19 01:07:55;;;;;;;8.93;5.35;;;8.10;99.90;;;;;;5030980;28;20033;-73
2023/12/19 01:10:21;;;;;;;16.45;6.53;;;8.10;99.90;;;;;;5015485;28;20033;-72
2023/12/19 01:12:47;;;;;;;12.27;5.70;;;8.10;99.90;;;;;;5032022;28;20187;-73
2023/12/19 01:15:13;;;;;;;9.30;5.15;;;8.10;99.90;;;;;;5014365;28;20134;-74
2023/12/19 01:17:39;;;;;;;10.40;5.53;;;8.10;99.90;;;;;;5026417;28;20056;-72
2023/12/19 01:20:05;;;;;;;11.52;4.93;;;8.20;99.90;;;;;;5015709;28;20041;-73
2023/12/19 01:22:43;;;;;;;12.88;5.28;;;8.10;99.90;;;;;;5026856;28;20048;-73
2023/12/19 01:25:09;;;;;;;10.93;5.07;;;8.10;99.90;;;;;;5030456;28;20569;-72
2023/12/19 01:27:35;;;;;;;14.32;5.97;;;8.10;99.90;;;;;;5011769;28;20037;-71
2023/12/19 01:30:01;;;;;;;11.35;6.15;;;8.20;99.90;;;;;;5031687;28;20040;-75
2023/12/19 01:32:26;;;;;;;13.15;5.70;;;8.10;99.90;;;;;;5027196;28;20101;-74
2023/12/19 01:34:53;;;;;;;13.10;5.93;;;8.20;99.90;;;;;;5015138;28;20437;-73
2023/12/19 01:37:19;;;;;;;16.77;5.90;;;8.20;99.90;;;;;;5023047;28;20121;-74
2023/12/19 01:39:44;;;;;;;13.10;5.47;;;8.20;99.90;;;;;;5015431;28;20461;-73
2023/12/19 01:42:10;;;;;;;12.00;4.95;;;8.20;99.90;;;;;;5050358;28;20044;-71
2023/12/19 01:44:36;;;;;;;10.75;5.60;;;8.20;99.90;;;;;;5054157;28;20040;-73
2023/12/19 01:47:02;;;;;;;11.50;4.88;;;8.20;99.90;;;;;;5034215;28;20037;-72
2023/12/19 01:49:28;;;;;;;15.73;5.65;;;8.20;99.90;;;;;;5050718;28;20044;-73
2023/12/19 01:51:54;;;;;;;10.23;5.05;;;8.20;99.90;;;;;;5050022;28;20105;-74
2023/12/19 01:54:20;;;;;;;14.10;6.10;;;8.20;99.90;;;;;;5054111;28;20477;-73
2023/12/19 01:56:47;;;;;;;11.20;5.40;;;8.20;99.90;;;;;;5037657;28;20143;-74
2023/12/19 01:59:13;;;;;;;12.43;5.22;;;8.20;99.90;;;;;;5049879;28;20778;-74
2023/12/19 02:01:40;;;;;;;11.15;5.57;;;8.20;99.90;;;;;;5049574;28;20081;-72
2023/12/19 02:04:08;;;;;;;11.75;6.00;;;8.20;99.90;;;;;;5054020;28;20130;-73
2023/12/19 02:06:34;;;;;;;14.57;5.82;;;8.20;99.90;;;;;;5035811;28;20076;-72
2023/12/19 02:09:01;;;;;;;10.30;4.90;;;8.20;99.90;;;;;;5053688;28;20044;-73
2023/12/19 02:11:28;;;;;;;12.07;5.80;;;8.20;99.90;;;;;;5031900;28;20116;-74
2023/12/19 02:13:56;;;;;;;15.35;5.70;;;8.20;99.90;;;;;;5037176;28;20059;-75
2023/12/19 02:16:22;;;;;;;12.07;5.10;;;8.20;99.90;;;;;;5053884;28;20416;-72
2023/12/19 02:19:01;;;;;;;10.82;4.70;;;8.20;99.90;;;;;;5046634;28;20140;-71
2023/12/19 02:21:27;;;;;;;11.00;4.82;;;8.20;99.90;;;;;;5042209;28;20037;-74
2023/12/19 02:23:53;;;;;;;12.27;5.00;;;8.20;99.90;;;;;;5037036;28;20051;-72
2023/12/19 02:26:18;;;;;;;13.32;5.03;;;8.20;99.90;;;;;;5049024;28;20373;-74
2023/12/19 02:28:44;;;;;;;8.75;4.88;;;8.20;99.90;;;;;;5053734;28;20047;-73
2023/12/19 02:31:10;;;;;;;10.02;5.05;;;8.20;99.90;;;;;;5053623;28;20056;-74
2023/12/19 02:33:36;;;;;;;7.68;4.15;;;8.20;99.90;;;;;;5028755;28;20037;-74
2023/12/19 02:36:02;;;;;;;8.73;4.80;;;8.10;99.90;;;;;;5049638;28;20044;-75
2023/12/19 02:38:27;;;;;;;9.32;5.15;;;8.10;99.90;;;;;;5031792;28;20072;-73
2023/12/19 02:40:53;;;;;;;12.07;5.65;;;8.10;99.90;;;;;;5054612;28;20091;-73
2023/12/19 02:43:19;;;;;;;7.88;3.88;;;8.10;99.90;;;;;;5036550;28;20043;-74
2023/12/19 02:45:45;;;;;;;10.80;4.65;;;8.10;99.90;;;;;;5032655;28;20120;-74
2023/12/19 02:48:10;;;;;;;8.93;4.72;;;8.10;99.90;;;;;;5037310;28;20047;-74
2023/12/19 02:50:36;;;;;;;7.95;4.15;;;8.10;99.90;;;;;;5057035;28;20481;-74
2023/12/19 02:53:02;;;;;;;10.02;3.97;;;8.10;99.90;;;;;;5052974;28;20055;-72
2023/12/19 02:55:28;;;;;;;8.68;4.47;;;8.00;99.90;;;;;;5053322;28;20048;-73
2023/12/19 02:58:00;;;;;;;6.13;3.58;;;8.00;99.90;;;;;;5053593;28;20052;-73
2023/12/19 03:00:26;;;;;;;9.75;3.78;;;8.10;99.90;;;;;;5041102;28;20648;-72
2023/12/19 03:02:52;;;;;;;11.63;4.32;;;8.10;99.90;;;;;;5061389;28;20087;-73
2023/12/19 03:05:18;;;;;;;9.43;4.10;;;8.00;99.90;;;;;;5053173;28;20465;-73
2023/12/19 03:07:44;;;;;;;14.45;4.82;;;8.00;99.90;;;;;;5046759;28;20041;-72
2023/12/19 03:10:10;;;;;;;9.73;4.28;;;8.00;99.90;;;;;;5035445;28;20032;-72
2023/12/19 03:12:36;;;;;;;11.27;5.07;;;8.00;99.90;;;;;;5052688;28;20032;-73
2023/12/19 03:15:03;;;;;;;7.47;4.20;;;8.00;99.90;;;;;;5052209;28;20040;-73
2023/12/19 03:17:28;;;;;;;11.57;4.68;;;8.00;99.90;;;;;;5051286;28;20041;-73
2023/12/19 03:19:54;;;;;;;11.35;4.35;;;8.00;99.90;;;;;;5052585;28;20045;-74
2023/12/19 03:22:20;;;;;;;10.82;4.30;;;8.00;99.90;;;;;;5061331;28;20043;-73
2023/12/19 03:24:46;;;;;;;8.60;4.07;;;8.00;99.90;;;;;;5051417;28;20481;-73
2023/12/19 03:27:11;;;;;;;7.80;4.32;;;8.00;99.90;;;;;;5051624;28;20095;-73
2023/12/19 03:29:37;;;;;;;12.27;5.40;;;8.00;99.90;;;;;;5044808;28;20037;-73
2023/12/19 03:32:03;;;;;;;10.00;4.25;;;8.00;99.90;;;;;;5048787;28;20040;-73
2023/12/19 03:34:30;;;;;;;9.18;3.53;;;8.00;99.90;;;;;;5044299;28;20123;-72
2023/12/19 03:36:56;;;;;;;9.93;4.75;;;8.00;99.90;;;;;;5044139;28;20037;-73
2023/12/19 03:39:22;;;;;;;9.10;4.80;;;8.00;99.90;;;;;;5049481;28;20451;-72
2023/12/19 03:41:49;;;;;;;9.23;4.80;;;8.00;99.90;;;;;;5030498;28;20057;-74
2023/12/19 03:44:16;;;;;;;10.55;5.40;;;8.00;99.90;;;;;;5012208;28;20377;-74
2023/12/19 03:46:42;;;;;;;10.23;5.22;;;8.10;99.90;;;;;;5021261;28;20042;-75
2023/12/19 03:49:07;;;;;;;14.35;5.30;;;8.00;99.90;;;;;;5025420;28;20363;-74
2023/12/19 03:51:33;;;;;;;12.60;5.85;;;8.10;99.90;;;;;;5012892;28;20033;-75
2023/12/19 03:53:59;;;;;;;11.50;4.93;;;8.10;99.90;;;;;;5025123;28;20521;-75
2023/12/19 03:56:25;;;;;;;12.13;5.68;;;8.00;99.90;;;;;;5028712;28;20065;-74
2023/12/19 03:58:50;;;;;;;10.43;4.80;;;8.00;99.90;;;;;;5008191;28;20042;-74
2023/12/19 04:01:18;;;;;;;11.63;4.68;;;8.00;99.90;;;;;;5024540;28;20489;-74
2023/12/19 04:03:44;;;;;;;11.60;4.45;;;8.00;99.90;;;;;;5009819;28;20033;-74
2023/12/19 04:06:10;;;;;;;7.90;4.93;;;8.10;99.90;;;;;;5025697;28;20049;-74
2023/12/19 04:08:36;;;;;;;8.85;4.50;;;8.10;99.90;;;;;;5028769;28;20029;-73
2023/12/19 04:11:02;;;;;;;9.27;4.72;;;8.00;99.90;;;;;;5012427;28;20040;-75
2023/12/19 04:13:28;;;;;;;10.32;5.07;;;8.00;99.90;;;;;;5029527;28;20113;-75
2023/12/19 04:15:53;;;;;;;8.25;4.13;;;8.00;99.90;;;;;;5025401;28;20504;-75
2023/12/19 04:18:19;;;;;;;10.30;4.65;;;8.00;99.90;;;;;;5031231;28;20064;-75
2023/12/19 04:20:45;;;;;;;8.00;4.13;;;8.00;99.90;;;;;;5045947;28;20033;-75
2023/12/19 04:23:12;;;;;;;10.77;4.43;;;8.00;99.90;;;;;;5030177;28;20049;-75
2023/12/19 04:25:37;;;;;;;7.80;4.03;;;8.00;99.90;;;;;;5029415;28;20041;-76
2023/12/19 04:28:03;;;;;;;7.47;3.95;;;8.00;99.90;;;;;;5034343;28;20040;-76
2023/12/19 04:30:29;;;;;;;9.60;4.65;;;8.00;99.90;;;;;;5039755;28;20046;-76
2023/12/19 04:32:55;;;;;;;8.40;4.15;;;8.00;99.90;;;;;;5031596;28;20034;-76
2023/12/19 04:35:21;;;;;;;10.43;4.45;;;8.00;99.90;;;;;;5033964;28;20046;-76
2023/12/19 04:37:46;;;;;;;9.05;4.57;;;8.10;99.90;;;;;;5030698;28;20048;-76
2023/12/19 04:40:12;;;;;;;11.40;4.43;;;8.10;99.90;;;;;;5016082;28;20116;-74
2023/12/19 04:42:38;;;;;;;10.25;4.18;;;8.10;99.90;;;;;;5024694;28;20478;-75
2023/12/19 04:45:05;;;;;;;9.88;4.47;;;8.10;99.90;;;;;;5037183;28;20053;-76
2023/12/19 04:47:31;;;;;;;9.10;4.28;;;8.10;99.90;;;;;;5019330;28;20041;-76
2023/12/19 04:49:57;;;;;;;7.97;4.72;;;8.10;99.90;;;;;;5041518;28;20412;-75
2023/12/19 04:52:22;;;;;;;10.55;4.00;;;8.20;99.90;;;;;;5040284;28;20037;-75
2023/12/19 04:54:48;;;;;;;12.73;4.55;;;8.10;99.90;;;;;;5032761;28;20037;-76
2023/12/19 04:57:14;;;;;;;8.88;4.50;;;8.10;99.90;;;;;;5041576;28;20116;-76
2023/12/19 04:59:40;;;;;;;9.73;4.63;;;8.20;99.90;;;;;;5037267;28;20045;-74
2023/12/19 05:02:06;;;;;;;9.85;5.07;;;8.20;99.90;;;;;;5039901;28;20048;-76
2023/12/19 05:04:32;;;;;;;8.45;4.18;;;8.20;99.90;;;;;;5042948;28;20094;-77
2023/12/19 05:06:58;;;;;;;10.82;4.15;;;8.20;99.90;;;;;;5032727;28;20128;-74
2023/12/19 05:09:25;;;;;;;7.40;4.53;;;8.20;99.90;;;;;;5032944;28;20037;-74
2023/12/19 05:11:51;;;;;;;8.35;3.70;;;8.30;99.90;;;;;;5041159;28;20080;-75
2023/12/19 05:14:16;;;;;;;7.25;3.90;;;8.30;99.90;;;;;;5020633;28;20061;-72
2023/12/19 05:16:42;;;;;;;8.68;3.88;;;8.30;99.90;;;;;;5028591;28;20041;-74
2023/12/19 05:19:08;;;;;;;8.13;3.60;;;8.30;99.90;;;;;;5032168;28;20052;-73
2023/12/19 05:21:38;;;;;;;9.93;4.30;;;8.30;99.90;;;;;;5037879;28;20042;-76
2023/12/19 05:24:05;;;;;;;8.10;3.53;;;8.30;99.90;;;;;;5021086;28;20041;-72
2023/12/19 05:26:31;;;;;;;9.55;3.67;;;8.30;99.90;;;;;;5032483;28;20045;-75
2023/12/19 05:28:56;;;;;;;8.75;3.75;;;8.30;99.90;;;;;;5036146;28;20102;-75
2023/12/19 05:31:22;;;;;;;8.15;3.72;;;8.30;99.90;;;;;;5040979;28;20555;-76
2023/12/19 05:33:48;;;;;;;5.53;3.10;;;8.30;99.90;;;;;;5033002;28;20433;-74
2023/12/19 05:36:14;;;;;;;9.27;4.30;;;8.30;99.90;;;;;;5039385;28;20095;-74
2023/12/19 05:38:40;;;;;;;5.32;3.25;;;8.30;99.90;;;;;;5029903;28;20052;-74
2023/12/19 05:41:06;;;;;;;7.15;2.72;;;8.30;99.90;;;;;;5018442;28;20465;-76
2023/12/19 05:43:31;;;;;;;5.22;2.90;;;8.30;99.90;;;;;;5042724;28;20044;-76
2023/12/19 05:45:59;;;;;;;7.25;3.58;;;8.30;99.90;;;;;;5029623;28;20045;-74
2023/12/19 05:48:25;;;;;;;6.85;2.97;;;8.30;99.90;;;;;;5033211;28;20115;-75
2023/12/19 05:50:52;;;;;;;5.80;3.35;;;8.30;99.90;;;;;;5010434;28;20129;-76
2023/12/19 05:53:17;;;;;;;7.38;3.15;;;8.30;99.90;;;;;;5035331;28;20088;-76
2023/12/19 05:55:44;;;;;;;4.63;2.55;;;8.30;99.90;;;;;;5027617;28;20033;-75
2023/12/19 05:58:10;;;;;;;3.95;2.45;;;8.30;99.90;;;;;;5034363;28;20088;-76
2023/12/19 06:00:36;;;;;;;5.05;2.97;;;8.30;99.90;;;;;;5033828;28;20073;-78
2023/12/19 06:03:02;;;;;;;5.15;2.72;;;8.40;99.90;;;;;;5031132;28;20041;-75
2023/12/19 06:05:28;;;;;;;5.53;2.60;;;8.30;99.90;;;;;;5040316;28;20037;-74
2023/12/19 06:07:53;;;;;;;3.22;1.77;;;8.40;99.90;;;;;;5031648;28;20371;-77
2023/12/19 06:10:19;;;;;;;2.97;1.92;;;8.30;99.90;;;;;;5031929;28;20065;-75
2023/12/19 06:12:45;;;;;;;3.28;1.40;;;8.30;99.90;;;;;;5023813;28;20030;-76
2023/12/19 06:15:14;;;;;;;4.43;2.05;;;8.30;99.90;;;;;;5025491;28;20034;-78
2023/12/19 06:17:46;;;;;;;3.17;1.60;;;8.30;99.90;;;;;;5014162;28;20049;-76
2023/12/19 06:20:12;;;;;;;2.92;1.55;;;8.40;99.90;;;;;;5031435;28;20056;-75
2023/12/19 06:22:41;;;;;;;3.38;1.60;;;8.30;99.90;;;;;;5015202;28;20041;-75
2023/12/19 06:25:07;;;;;;;3.58;1.77;;;8.40;99.90;;;;;;5030936;28;20136;-74
2023/12/19 06:27:34;;;;;;;4.15;1.90;;;8.30;99.90;;;;;;5035769;28;20036;-76
2023/12/19 06:30:10;;;;;;;2.83;1.48;;;8.40;99.90;;;;;;5018556;28;20044;-76
2023/12/19 06:32:36;;;;;;;4.80;1.60;;;8.40;99.90;;;;;;5038459;28;20072;-76
2023/12/19 06:35:07;;;;;;;3.33;1.92;;;8.30;99.90;;;;;;5016316;28;20120;-76
2023/12/19 06:37:36;;;;;;;4.15;2.03;;;8.40;99.90;;;;;;5033809;28;20359;-75
2023/12/19 06:40:04;;;;;;;3.97;2.13;;;8.40;99.90;;;;;;5018003;28;20052;-76
2023/12/19 06:42:30;;;;;;;4.03;2.15;;;8.40;99.90;;;;;;5026795;28;20056;-75
2023/12/19 06:44:56;;;;;;;4.25;1.63;;;8.40;99.90;;;;;;5031052;28;20049;-76
2023/12/19 06:47:22;;;;;;;3.92;1.85;;;8.40;99.90;;;;;;5038579;28;20102;-73
2023/12/19 06:49:48;;;;;;;3.28;1.48;;;8.40;99.90;;;;;;5014350;28;20048;-75
2023/12/19 06:52:13;;;;;;;2.97;1.67;;;8.40;99.90;;;;;;5026925;28;20044;-75
2023/12/19 06:54:39;;;;;;;2.33;1.33;;;8.40;99.90;;;;;;5033670;28;20579;-75
2023/12/19 06:57:05;;;;;;;3.72;1.50;;;8.40;99.90;;;;;;5013827;28;20130;-75
2023/12/19 06:59:34;;;;;;;4.10;1.85;;;8.40;99.90;;;;;;5010191;28;20033;-75
2023/12/19 07:02:00;;;;;;;4.28;1.67;;;8.40;99.90;;;;;;5026991;28;20507;-76
2023/12/19 07:04:26;;;;;;;4.60;1.80;;;8.40;99.90;;;;;;5035339;28;20041;-76
2023/12/19 07:06:53;;;;;;;4.45;1.73;;;8.40;99.90;;;;;;5018990;28;20049;-76
2023/12/19 07:09:19;;;;;;;5.75;1.88;;;8.40;99.90;;;;;;5030018;28;20073;-76
2023/12/19 07:11:45;;;;;;;2.95;1.73;;;8.40;99.90;;;;;;5027848;28;20073;-75
2023/12/19 07:14:10;;;;;;;4.22;1.75;;;8.40;99.90;;;;;;5028631;28;20040;-75
2023/12/19 07:16:36;;;;;;;3.75;2.38;;;8.50;99.90;;;;;;5034344;28;20073;-76
2023/12/19 07:19:03;;;;;;;5.28;2.17;;;8.50;99.90;;;;;;5030078;28;20037;-75
2023/12/19 07:21:31;;;;;;;4.97;2.17;;;8.50;99.90;;;;;;5014345;28;20037;-75
2023/12/19 07:23:59;;;;;;;5.05;2.42;;;8.50;99.90;;;;;;5029854;28;20114;-75
2023/12/19 07:26:27;;;;;;;4.45;2.58;;;8.50;99.90;;;;;;5026178;28;20057;-74
2023/12/19 07:28:57;;;;;;;4.28;2.70;;;8.60;99.90;;;;;;5030382;28;20566;-76
2023/12/19 07:31:24;;;;;;;4.07;2.30;;;8.60;99.90;;;;;;5014076;28;20049;-73
2023/12/19 07:34:00;;;;;;;4.38;2.33;;;8.60;99.90;;;;;;5029277;28;20470;-75
2023/12/19 07:36:26;;;;;;;6.68;3.08;;;8.60;99.90;;;;;;5018858;28;20046;-76
2023/12/19 07:38:53;;;;;;;4.13;2.30;;;8.70;99.90;;;;;;5028205;28;20496;-76
2023/12/19 07:41:20;;;;;;;5.38;2.63;;;8.60;99.90;;;;;;5029403;28;20058;-75
2023/12/19 07:43:46;;;;;;;5.50;2.35;;;8.60;99.90;;;;;;5033772;28;20052;-76
2023/12/19 07:46:13;;;;;;;4.72;2.30;;;8.70;99.90;;;;;;5029460;28;20037;-73
2023/12/19 07:48:39;;;;;;;4.90;2.45;;;8.70;99.90;;;;;;5025607;28;20504;-76
2023/12/19 07:51:05;;;;;;;5.50;2.55;;;8.70;99.90;;;;;;5031741;28;20041;-75
2023/12/19 07:53:31;;;;;;;5.25;3.05;;;8.70;99.90;;;;;;5009220;28;20042;-72
2023/12/19 07:56:04;;;;;;;5.07;2.42;;;8.70;99.90;;;;;;5017049;28;20433;-76
2023/12/19 07:58:30;;;;;;;5.47;2.08;;;8.70;99.90;;;;;;5010480;28;20096;-75
2023/12/19 08:00:56;;;;;;;4.70;2.10;;;8.80;99.90;;;;;;5009726;28;20046;-74
2023/12/19 08:03:27;;;;;;;3.92;2.28;;;8.80;99.90;;;;;;5035267;28;20045;-76
2023/12/19 08:05:55;;;;;;;3.33;1.85;;;8.80;99.90;;;;;;5025751;28;20045;-75
2023/12/19 08:08:22;;;;;;;4.45;2.55;;;8.80;99.90;;;;;;5019641;28;20030;-76
2023/12/19 08:10:48;;;;;;;4.25;2.72;;;8.80;99.90;;;;;;5028929;28;20378;-74
2023/12/19 08:13:14;;;;;;;6.10;2.47;;;8.80;99.90;;;;;;5036425;28;20073;-78
2023/12/19 08:15:40;;;;;;;3.95;1.98;;;8.90;99.90;;;;;;5050697;28;20501;-77
2023/12/19 08:18:07;;;;;;;5.60;2.33;;;8.90;99.90;;;;;;5040973;28;20044;-74
2023/12/19 08:20:36;;;;;;;3.83;2.22;;;8.80;99.90;;;;;;5029981;28;20611;-75
2023/12/19 08:23:02;;;;;;;7.20;3.47;;;8.90;99.90;;;;;;5038637;28;20136;-76
2023/12/19 08:25:28;;;;;;;4.80;2.47;;;8.90;99.90;;;;;;5034839;28;20049;-78
2023/12/19 08:27:54;;;;;;;4.93;2.60;;;8.90;99.90;;;;;;5025221;28;20044;-76
2023/12/19 08:30:22;;;;;;;5.50;2.65;;;8.90;99.90;;;;;;5039111;28;20033;-78
2023/12/19 08:32:48;;;;;;;3.97;2.10;;;8.90;99.90;;;;;;5033625;28;20046;-76
2023/12/19 08:35:14;;;;;;;5.95;2.45;;;8.90;99.90;;;;;;5043996;28;20720;-77
2023/12/19 08:37:40;;;;;;;5.10;2.70;;;9.00;99.90;;;;;;5040771;28;20041;-78
2023/12/19 08:40:07;;;;;;;7.68;3.13;;;9.00;99.90;;;;;;5032128;28;20703;-78
2023/12/19 08:42:33;;;;;;;4.78;2.72;;;9.00;99.90;;;;;;5042807;28;20037;-77
2023/12/19 08:44:59;;;;;;;8.98;3.85;;;9.00;99.90;;;;;;5042605;28;20040;-78
2023/12/19 08:47:28;;;;;;;7.00;3.67;;;9.00;99.90;;;;;;5042657;28;20529;-79
2023/12/19 08:49:54;;;;;;;5.65;2.97;;;9.00;99.90;;;;;;5036653;28;20037;-79
2023/12/19 08:52:22;;;;;;;7.55;3.42;;;9.10;99.90;;;;;;5034001;28;20083;-77
2023/12/19 08:54:48;;;;;;;4.93;3.10;;;9.00;99.90;;;;;;5045554;28;20040;-78
2023/12/19 08:57:16;;;;;;;6.32;2.97;;;9.10;99.90;;;;;;5042116;28;20678;-78
2023/12/19 08:59:42;;;;;;;5.93;3.58;;;9.10;99.90;;;;;;5042978;28;20105;-78
2023/12/19 09:02:07;;;;;;;6.53;2.92;;;9.10;99.90;;;;;;5032952;28;20120;-78
2023/12/19 09:04:33;;;;;;;5.68;2.55;;;9.10;99.90;;;;;;5042058;28;20042;-77
2023/12/19 09:06:59;;;;;;;4.07;2.33;;;9.10;99.90;;;;;;5044728;28;20136;-77
2023/12/19 09:09:27;;;;;;;5.30;2.67;;;9.10;99.90;;;;;;5042582;28;20033;-77
2023/12/19 09:11:52;;;;;;;6.10;2.95;;;9.00;99.90;;;;;;5027708;28;20041;-77
2023/12/19 09:14:20;;;;;;;6.10;2.97;;;9.10;99.90;;;;;;5040729;28;20036;-78
2023/12/19 09:16:45;;;;;;;4.90;2.80;;;9.10;99.90;;;;;;5027662;28;20044;-78
2023/12/19 09:19:14;;;;;;;5.57;2.53;;;9.10;99.90;;;;;;5037730;28;20032;-76
2023/12/19 09:21:40;;;;;;;3.40;1.70;;;9.10;99.90;;;;;;5041680;28;20075;-75
2023/12/19 09:24:06;;;;;;;4.70;2.67;;;9.10;99.90;;;;;;5033050;28;20292;-77
2023/12/19 09:26:33;;;;;;;7.10;2.83;;;9.00;99.90;;;;;;5033770;28;20061;-76
2023/12/19 09:28:59;;;;;;;4.88;1.98;;;9.00;99.90;;;;;;5039041;28;20048;-76
2023/12/19 09:31:25;;;;;;;4.70;2.30;;;9.10;99.90;;;;;;5041853;28;20103;-76
2023/12/19 09:33:50;;;;;;;2.33;1.30;;;9.10;99.90;;;;;;5032322;28;20034;-74
2023/12/19 09:36:26;;;;;;;3.88;1.95;;;9.00;99.90;;;;;;5035353;28;20037;-74
2023/12/19 09:38:52;;;;;;;5.05;2.25;;;9.10;99.90;;;;;;5012675;28;20046;-75
2023/12/19 09:41:18;;;;;;;2.13;1.20;;;9.10;99.90;;;;;;5037175;28;20490;-74
2023/12/19 09:43:44;;;;;;;2.88;1.33;;;9.20;99.90;;;;;;5022443;28;20181;-75
2023/12/19 09:46:13;;;;;;;2.13;1.63;;;9.20;99.90;;;;;;5024431;28;20040;-75
2023/12/19 09:48:41;;;;;;;2.20;1.42;;;9.20;99.90;;;;;;5030508;28;20029;-75
2023/12/19 09:51:14;;;;;;;2.17;1.35;;;9.20;99.90;;;;;;5032648;28;20037;-76
2023/12/19 09:53:40;;;;;;;2.00;1.17;;;9.20;99.90;;;;;;5040274;28;20029;-74
2023/12/19 09:56:07;;;;;;;3.38;1.70;;;9.20;99.90;;;;;;5039969;28;20048;-75
2023/12/19 09:58:33;;;;;;;3.05;1.30;;;9.20;99.90;;;;;;5030274;28;20093;-75
2023/12/19 10:01:00;;;;;;;2.60;1.20;;;9.20;99.90;;;;;;5030819;28;20120;-75
2023/12/19 10:03:29;;;;;;;3.30;1.42;;;9.10;99.90;;;;;;5036102;28;20046;-75
2023/12/19 10:05:56;;;;;;;2.30;1.13;;;9.20;99.90;;;;;;5035808;28;20045;-75
2023/12/19 10:08:23;;;;;;;3.55;1.60;;;9.10;99.90;;;;;;5030158;28;20109;-75
2023/12/19 10:10:53;;;;;;;3.35;1.80;;;9.20;99.90;;;;;;5029165;28;20037;-75
2023/12/19 10:13:28;;;;;;;7.88;1.70;;;9.20;99.90;;;;;;5037038;28;20083;-75
2023/12/19 10:16:06;;;;;;;3.47;1.65;;;9.10;99.90;;;;;;5036282;28;20503;-75
2023/12/19 10:18:36;;;;;;;4.60;1.77;;;9.10;99.90;;;;;;5010160;28;20050;-75
2023/12/19 10:21:08;;;;;;;3.42;1.92;;;9.10;99.90;;;;;;5035958;28;20090;-75
2023/12/19 10:23:34;;;;;;;3.42;1.73;;;9.10;99.90;;;;;;5025293;28;20037;-75
2023/12/19 10:26:01;;;;;;;3.13;1.70;;;9.20;99.90;;;;;;5029725;28;20084;-75
2023/12/19 10:28:27;;;;;;;4.00;1.70;;;9.20;99.90;;;;;;5035535;28;20040;-75
2023/12/19 10:31:16;;;;;;;6.00;1.80;;;9.10;99.90;;;;;;5029288;28;20033;-75
2023/12/19 10:33:46;;;;;;;4.07;1.20;;;9.20;99.90;;;;;;5028474;28;20077;-74
2023/12/19 10:36:32;;;;;;;3.85;2.25;;;9.20;99.90;;;;;;5028501;28;20053;-74
2023/12/19 10:38:59;;;;;;;3.88;1.88;;;9.20;99.90;;;;;;5031484;28;20085;-76
2023/12/19 10:41:27;;;;;;;2.33;1.27;;;9.20;99.90;;;;;;5031738;28;20053;-78
2023/12/19 10:43:56;;;;;;;2.75;1.70;;;9.20;99.90;;;;;;5031084;28;20041;-76
2023/12/19 10:46:26;;;;;;;6.38;1.45;;;9.10;99.90;;;;;;5033087;28;20041;-75
2023/12/19 10:48:54;;;;;;;5.50;2.20;;;9.20;99.90;;;;;;5034063;28;20041;-75
2023/12/19 10:51:42;;;;;;;3.38;1.83;;;9.10;99.90;;;;;;5038929;28;20124;-76
2023/12/19 10:54:12;;;;;;;2.80;1.80;;;9.10;99.90;;;;;;5028856;28;20113;-75
2023/12/19 10:56:58;;;;;;;4.05;1.90;;;9.10;99.90;;;;;;5033170;28;20046;-74
2023/12/19 10:59:38;;;;;;;5.00;2.80;;;9.10;99.90;;;;;;5027635;28;20120;-75
2023/12/19 11:02:09;;;;;;;4.28;1.88;;;9.10;99.90;;;;;;5028122;28;20045;-75
2023/12/19 11:04:41;;;;;;;5.93;2.47;;;9.10;99.90;;;;;;5031262;28;20046;-76
2023/12/19 11:07:12;;;;;;;5.32;2.28;;;9.10;99.90;;;;;;5011752;28;20046;-76
2023/12/19 11:09:40;;;;;;;5.45;2.88;;;9.10;99.90;;;;;;5028507;28;20681;-75
2023/12/19 11:12:06;;;;;;;4.45;2.38;;;9.10;99.90;;;;;;5031996;28;20501;-75
2023/12/19 11:14:32;;;;;;;6.03;3.38;;;9.10;99.90;;;;;;5007026;28;20111;-75
2023/12/19 11:17:05;;;;;;;5.75;2.40;;;9.10;99.90;;;;;;5033340;28;20432;-75
2023/12/19 11:19:37;;;;;;;3.67;2.28;;;9.10;99.90;;;;;;5007855;28;20041;-75
2023/12/19 11:22:21;;;;;;;6.57;2.97;;;9.10;99.90;;;;;;5028875;28;20048;-75
2023/12/19 11:25:13;;;;;;;3.95;2.13;;;9.10;99.90;;;;;;5026622;28;20041;-75
2023/12/19 11:27:55;;;;;;;5.25;2.50;;;9.10;99.90;;;;;;5029305;28;20047;-75
2023/12/19 11:30:38;;;;;;;5.43;2.63;;;9.10;99.90;;;;;;5026083;28;20041;-74
2023/12/19 11:33:06;;;;;;;3.97;2.22;;;9.10;99.90;;;;;;5026495;28;20075;-74
2023/12/19 11:35:32;;;;;;;4.07;2.08;;;9.20;99.90;;;;;;5027813;28;20119;-74
2023/12/19 11:38:20;;;;;;;5.13;2.45;;;9.10;99.90;;;;;;5024708;28;20428;-74
2023/12/19 11:40:46;;;;;;;6.45;2.72;;;9.20;99.90;;;;;;5024741;28;20072;-76
2023/12/19 11:43:31;;;;;;;3.97;2.30;;;9.20;99.90;;;;;;5030343;28;20046;-75
2023/12/19 11:46:03;;;;;;;3.63;2.38;;;9.20;99.90;;;;;;5010519;28;20040;-75
2023/12/19 11:48:36;;;;;;;4.20;2.45;;;9.20;99.90;;;;;;5028640;28;20053;-75
2023/12/19 11:51:03;;;;;;;3.40;2.13;;;9.20;99.90;;;;;;5021385;28;20110;-74
2023/12/19 11:53:29;;;;;;;5.93;3.15;;;9.20;99.90;;;;;;5012755;28;20104;-74
2023/12/19 11:56:09;;;;;;;3.83;2.08;;;9.20;99.90;;;;;;5033801;28;20125;-76
2023/12/19 11:58:52;;;;;;;5.72;2.45;;;9.30;99.90;;;;;;5033969;28;20053;-76
2023/12/19 12:01:22;;;;;;;4.50;2.67;;;9.20;99.90;;;;;;5037284;28;20174;-76
2023/12/19 12:03:48;;;;;;;7.10;2.53;;;9.30;99.90;;;;;;5026502;28;20049;-76
2023/12/19 12:06:18;;;;;;;3.35;1.70;;;9.30;99.90;;;;;;5033127;28;20045;-76
2023/12/19 12:08:53;;;;;;;4.35;1.83;;;9.30;99.90;;;;;;5041706;28;20827;-76
2023/12/19 12:11:19;;;;;;;4.03;1.58;;;9.30;99.90;;;;;;5021869;28;20055;-75
2023/12/19 12:14:03;;;;;;;3.10;1.65;;;9.40;99.90;;;;;;5028560;28;20041;-76
2023/12/19 12:16:39;;;;;;;2.75;1.27;;;9.40;99.90;;;;;;5021634;28;20514;-76
2023/12/19 12:19:16;;;;;;;3.28;1.50;;;9.40;99.90;;;;;;5005376;28;20505;-76
2023/12/19 12:21:46;;;;;;;5.45;2.50;;;9.40;99.90;;;;;;5018132;28;20092;-75
2023/12/19 12:24:22;;;;;;;16.15;3.63;;;9.40;99.90;;;;;;5003141;28;20182;-76
2023/12/19 12:26:49;;;;;;;6.00;2.40;;;9.40;99.90;;;;;;5001769;28;20041;-76
2023/12/19 12:29:17;;;;;;;15.43;6.63;;;9.50;99.90;;;;;;5020585;28;20486;-76
2023/12/19 12:31:45;;;;;;;9.55;4.05;;;9.50;99.90;;;;;;5022028;28;20046;-76
2023/12/19 12:34:12;;;;;;;3.15;1.52;;;9.50;99.90;;;;;;5021610;28;20045;-76
2023/12/19 12:36:38;;;;;;;3.53;2.00;;;9.50;99.90;;;;;;5004558;28;20041;-76
2023/12/19 12:39:04;;;;;;;2.78;1.15;;;9.50;99.90;;;;;;5021116;28;20061;-76
2023/12/19 12:41:30;;;;;;;3.38;1.58;;;9.50;99.90;;;;;;5023095;28;20053;-76
2023/12/19 12:43:56;;;;;;;2.13;1.25;;;9.50;99.90;;;;;;5023230;28;20049;-77
2023/12/19 12:46:24;;;;;;;1.95;1.13;;;9.50;99.90;;;;;;5007400;28;20037;-76
2023/12/19 12:48:53;;;;;;;2.55;1.30;;;9.50;99.90;;;;;;5007991;28;20038;-76
2023/12/19 12:51:20;;;;;;;3.22;1.73;;;9.60;99.90;;;;;;5024823;28;20386;-76
2023/12/19 12:57:33;;;;;;;8.18;3.50;;;9.60;99.90;;;;;;5027229;28;20515;-76
2023/12/19 13:00:51;;;;;;;3.63;2.03;;;9.60;99.90;;;;;;5027433;28;20049;-76
2023/12/19 13:06:37;;;;;;;2.88;1.30;;;9.60;99.90;;;;;;5013968;28;20044;-75